createdAt,value
2022-08-28T00:00:25.430Z,18.60
2022-08-28T00:02:53.143Z,18.60
2022-08-28T00:05:22.719Z,18.60
2022-08-28T00:07:49.683Z,18.60
2022-08-28T00:10:20.001Z,18.50
2022-08-28T00:12:50.686Z,18.50
2022-08-28T00:15:24.764Z,18.50
2022-08-28T00:17:51.387Z,18.50
2022-08-28T00:20:20.851Z,18.40
2022-08-28T00:22:49.528Z,18.40
2022-08-28T00:25:17.992Z,18.40
2022-08-28T00:27:55.229Z,18.30
2022-08-28T00:30:29.795Z,18.40
2022-08-28T00:33:00.092Z,18.30
2022-08-28T00:35:27.689Z,18.20
2022-08-28T00:37:54.934Z,18.20
2022-08-28T00:40:32.315Z,18.20
2022-08-28T00:43:03.073Z,18.20
2022-08-28T00:45:33.905Z,18.20
2022-08-28T00:48:03.072Z,18.10
2022-08-28T00:50:53.616Z,18.10
2022-08-28T00:53:27.286Z,18.10
2022-08-28T00:55:59.828Z,18.10
2022-08-28T00:58:26.515Z,18.10
2022-08-28T01:00:53.217Z,18.00
2022-08-28T01:03:19.887Z,18.00
2022-08-28T01:05:51.870Z,18.00
2022-08-28T01:08:18.753Z,18.00
2022-08-28T01:10:48.581Z,17.90
2022-08-28T01:13:17.604Z,17.90
2022-08-28T01:15:44.792Z,17.90
2022-08-28T01:18:15.606Z,17.90
2022-08-28T01:20:48.007Z,17.90
2022-08-28T01:23:39.369Z,17.80
2022-08-28T01:26:11.749Z,17.80
2022-08-28T01:28:39.784Z,17.80
2022-08-28T01:31:13.783Z,17.80
2022-08-28T01:33:42.568Z,17.80
2022-08-28T01:36:12.111Z,17.70
2022-08-28T01:38:40.854Z,17.80
2022-08-28T01:41:07.842Z,17.70
2022-08-28T01:43:34.883Z,17.70
2022-08-28T01:46:04.893Z,17.70
2022-08-28T01:48:34.416Z,17.70
2022-08-28T01:51:01.266Z,17.70
2022-08-28T01:53:32.606Z,17.70
2022-08-28T01:56:01.645Z,17.70
2022-08-28T01:58:30.400Z,17.70
2022-08-28T02:00:57.631Z,17.70
2022-08-28T02:03:24.567Z,17.60
2022-08-28T02:05:52.385Z,17.60
2022-08-28T02:08:20.058Z,17.60
2022-08-28T02:10:47.087Z,17.60
2022-08-28T02:13:14.031Z,17.60
2022-08-28T02:15:42.871Z,17.60
2022-08-28T02:18:10.031Z,17.60
2022-08-28T02:20:36.764Z,17.60
2022-08-28T02:23:04.015Z,17.60
2022-08-28T02:25:30.858Z,17.50
2022-08-28T02:27:58.199Z,17.60
2022-08-28T02:30:25.404Z,17.50
2022-08-28T02:32:52.248Z,17.50
2022-08-28T02:35:20.308Z,17.50
2022-08-28T02:37:48.020Z,17.50
2022-08-28T02:40:17.423Z,17.50
2022-08-28T02:42:44.572Z,17.40
2022-08-28T02:45:12.525Z,17.40
2022-08-28T02:47:40.485Z,17.40
2022-08-28T02:50:08.891Z,17.40
2022-08-28T02:52:37.334Z,17.40
2022-08-28T02:55:05.888Z,17.40
2022-08-28T02:57:32.796Z,17.40
2022-08-28T02:59:59.791Z,17.30
2022-08-28T03:02:26.757Z,17.30
2022-08-28T03:04:54.380Z,17.30
2022-08-28T03:07:22.669Z,17.30
2022-08-28T03:09:50.258Z,17.20
2022-08-28T03:12:17.095Z,17.30
2022-08-28T03:14:43.906Z,17.20
2022-08-28T03:17:10.644Z,17.20
2022-08-28T03:19:37.271Z,17.20
2022-08-28T03:22:04.044Z,17.20
2022-08-28T03:24:30.701Z,17.20
2022-08-28T03:26:57.296Z,17.20
2022-08-28T03:29:23.962Z,17.20
2022-08-28T03:31:50.816Z,17.20
2022-08-28T03:34:17.526Z,17.10
2022-08-28T03:36:44.196Z,17.10
2022-08-28T03:39:10.925Z,17.10
2022-08-28T03:41:37.692Z,17.10
2022-08-28T03:44:05.036Z,17.10
2022-08-28T03:46:33.251Z,17.10
2022-08-28T03:49:02.232Z,17.10
2022-08-28T03:51:31.743Z,17.10
2022-08-28T03:54:04.274Z,17.10
2022-08-28T03:56:31.660Z,17.10
2022-08-28T03:59:01.193Z,17.10
2022-08-28T04:01:28.282Z,17.10
2022-08-28T04:03:55.854Z,17.10
2022-08-28T04:06:22.923Z,17.00
2022-08-28T04:08:50.954Z,17.00
2022-08-28T04:11:18.229Z,17.00
2022-08-28T04:13:45.507Z,17.00
2022-08-28T04:16:17.949Z,17.00
2022-08-28T04:18:46.341Z,17.00
2022-08-28T04:21:22.320Z,17.00
2022-08-28T04:23:49.796Z,16.90
2022-08-28T04:26:19.512Z,16.90
2022-08-28T04:28:47.156Z,17.00
2022-08-28T04:31:14.922Z,16.90
2022-08-28T04:33:41.886Z,16.90
2022-08-28T04:36:12.299Z,16.90
2022-08-28T04:38:43.661Z,16.90
2022-08-28T04:41:13.299Z,16.90
2022-08-28T04:43:40.193Z,16.90
2022-08-28T04:46:09.648Z,16.90
2022-08-28T04:48:37.102Z,16.90
2022-08-28T04:51:06.330Z,16.80
2022-08-28T04:53:33.217Z,16.90
2022-08-28T04:56:03.363Z,16.80
2022-08-28T04:58:30.528Z,16.90
2022-08-28T05:00:57.153Z,16.80
2022-08-28T05:03:24.220Z,16.80
2022-08-28T05:05:53.980Z,16.80
2022-08-28T05:08:23.508Z,16.80
2022-08-28T05:10:50.901Z,16.80
2022-08-28T05:13:18.840Z,16.80
2022-08-28T05:15:51.084Z,16.80
2022-08-28T05:18:21.884Z,16.90
2022-08-28T05:20:49.205Z,16.80
2022-08-28T05:23:16.623Z,16.80
2022-08-28T05:25:47.477Z,16.80
2022-08-28T05:28:16.783Z,16.80
2022-08-28T05:30:44.488Z,16.80
2022-08-28T05:33:13.226Z,16.80
2022-08-28T05:35:42.575Z,16.80
2022-08-28T05:38:10.214Z,16.90
2022-08-28T05:40:49.315Z,16.90
2022-08-28T05:43:17.122Z,16.90
2022-08-28T05:45:43.797Z,16.90
2022-08-28T05:48:12.349Z,16.90
2022-08-28T05:50:39.694Z,16.90
2022-08-28T05:53:13.833Z,16.90
2022-08-28T05:55:41.006Z,16.80
2022-08-28T05:58:26.510Z,16.80
2022-08-28T06:00:53.118Z,16.90
2022-08-28T06:03:19.719Z,16.80
2022-08-28T06:05:46.436Z,16.80
2022-08-28T06:08:13.207Z,16.90
2022-08-28T06:10:44.720Z,16.90
2022-08-28T06:13:17.168Z,16.90
2022-08-28T06:15:45.966Z,16.90
2022-08-28T06:18:13.644Z,16.90
2022-08-28T06:20:42.221Z,17.00
2022-08-28T06:23:10.688Z,17.00
2022-08-28T06:25:49.264Z,17.00
2022-08-28T06:28:21.567Z,17.00
2022-08-28T06:31:02.936Z,17.10
2022-08-28T06:33:35.649Z,17.10
2022-08-28T06:36:04.869Z,17.10
2022-08-28T06:38:31.706Z,17.10
2022-08-28T06:40:58.598Z,17.10
2022-08-28T06:43:27.477Z,17.20
2022-08-28T06:45:56.010Z,17.20
2022-08-28T06:48:27.416Z,17.20
2022-08-28T06:50:55.819Z,17.20
2022-08-28T06:53:25.621Z,17.20
2022-08-28T06:56:23.638Z,17.20
2022-08-28T06:58:55.266Z,17.30
2022-08-28T07:01:34.811Z,17.30
2022-08-28T07:04:06.120Z,17.30
2022-08-28T07:06:36.497Z,17.40
2022-08-28T07:09:06.556Z,17.40
2022-08-28T07:11:34.995Z,17.40
2022-08-28T07:14:02.888Z,17.40
2022-08-28T07:16:32.845Z,17.50
2022-08-28T07:18:59.966Z,17.50
2022-08-28T07:21:26.971Z,17.60
2022-08-28T07:23:54.710Z,17.60
2022-08-28T07:26:24.386Z,17.60
2022-08-28T07:29:09.379Z,17.70
2022-08-28T07:31:40.679Z,17.70
2022-08-28T07:34:07.746Z,17.70
2022-08-28T07:36:35.701Z,17.80
2022-08-28T07:39:02.358Z,17.80
2022-08-28T07:41:31.344Z,17.90
2022-08-28T07:44:17.545Z,18.00
2022-08-28T07:46:45.252Z,18.00
2022-08-28T07:49:14.040Z,18.10
2022-08-28T07:51:40.833Z,18.20
2022-08-28T07:54:08.673Z,18.40
2022-08-28T07:56:45.161Z,18.50
2022-08-28T07:59:14.038Z,18.60
2022-08-28T08:01:46.283Z,18.80
2022-08-28T08:04:14.211Z,19.00
2022-08-28T08:06:41.545Z,19.20
2022-08-28T08:09:10.995Z,19.40
2022-08-28T08:11:38.225Z,19.70
2022-08-28T08:14:07.308Z,19.90
2022-08-28T08:16:36.526Z,20.20
2022-08-28T08:19:04.067Z,20.50
2022-08-28T08:21:31.574Z,20.70
2022-08-28T08:23:59.033Z,21.00
2022-08-28T08:26:28.137Z,21.20
2022-08-28T08:28:56.633Z,21.50
2022-08-28T08:31:27.153Z,21.70
2022-08-28T08:33:58.097Z,21.90
2022-08-28T08:36:26.957Z,22.10
2022-08-28T08:38:59.906Z,22.20
2022-08-28T08:41:48.540Z,22.50
2022-08-28T08:44:33.439Z,22.70
2022-08-28T08:47:07.851Z,22.90
2022-08-28T08:49:42.016Z,23.10
2022-08-28T08:52:11.689Z,23.40
2022-08-28T08:54:43.945Z,23.60
2022-08-28T08:57:14.504Z,23.80
2022-08-28T08:59:41.928Z,24.00
2022-08-28T09:02:38.711Z,24.20
2022-08-28T09:05:10.141Z,24.50
2022-08-28T09:07:44.745Z,24.70
2022-08-28T09:10:14.569Z,24.90
2022-08-28T09:12:56.440Z,25.10
2022-08-28T09:15:48.685Z,25.30
2022-08-28T09:18:31.916Z,25.40
2022-08-28T09:20:59.515Z,25.60
2022-08-28T09:23:30.130Z,25.70
2022-08-28T09:26:02.640Z,25.80
2022-08-28T09:28:37.345Z,26.00
2022-08-28T09:31:07.455Z,26.10
2022-08-28T09:33:54.496Z,26.20
2022-08-28T09:36:33.857Z,26.40
2022-08-28T09:39:18.739Z,26.60
2022-08-28T09:42:03.644Z,26.70
2022-08-28T09:44:31.280Z,26.90
2022-08-28T09:46:59.240Z,27.00
2022-08-28T09:49:30.271Z,27.10
2022-08-28T09:52:01.673Z,27.10
2022-08-28T09:54:34.228Z,27.30
2022-08-28T09:57:03.373Z,27.40
2022-08-28T09:59:30.645Z,27.50
2022-08-28T10:02:22.304Z,27.60
2022-08-28T10:05:00.573Z,27.70
2022-08-28T10:07:46.446Z,27.70
2022-08-28T10:10:33.374Z,27.70
2022-08-28T10:13:03.054Z,27.80
2022-08-28T10:15:37.255Z,27.90
2022-08-28T10:18:27.122Z,28.00
2022-08-28T10:21:20.493Z,28.10
2022-08-28T10:23:52.136Z,28.10
2022-08-28T10:26:29.673Z,28.20
2022-08-28T10:29:02.349Z,28.30
2022-08-28T10:31:36.375Z,28.30
2022-08-28T10:34:11.292Z,28.40
2022-08-28T10:36:37.942Z,28.40
2022-08-28T10:39:16.559Z,28.50
2022-08-28T10:41:49.850Z,28.50
2022-08-28T10:44:37.028Z,28.50
2022-08-28T10:47:05.007Z,28.50
2022-08-28T10:49:37.146Z,28.40
2022-08-28T10:52:07.531Z,28.40
2022-08-28T10:54:50.784Z,28.40
2022-08-28T10:57:23.316Z,28.50
2022-08-28T10:59:52.776Z,28.60
2022-08-28T11:02:24.342Z,28.70
2022-08-28T11:04:56.472Z,28.80
2022-08-28T11:07:49.541Z,29.00
2022-08-28T11:10:22.321Z,29.20
2022-08-28T11:12:51.941Z,29.40
2022-08-28T11:15:40.829Z,29.60
2022-08-28T11:18:15.691Z,29.90
2022-08-28T11:20:54.948Z,30.10
2022-08-28T11:23:36.903Z,30.40
2022-08-28T11:26:09.149Z,30.70
2022-08-28T11:28:35.892Z,31.00
2022-08-28T11:31:05.611Z,31.30
2022-08-28T11:33:52.308Z,31.50
2022-08-28T11:36:21.921Z,31.70
2022-08-28T11:38:51.571Z,31.90
2022-08-28T11:41:21.715Z,32.00
2022-08-28T11:43:52.362Z,32.00
2022-08-28T11:46:33.358Z,32.10
2022-08-28T11:49:03.372Z,32.00
2022-08-28T11:51:48.157Z,32.00
2022-08-28T11:54:47.104Z,31.90
2022-08-28T11:57:28.133Z,31.90
2022-08-28T12:00:08.605Z,31.90
2022-08-28T12:02:47.959Z,31.90
2022-08-28T12:05:14.770Z,32.00
2022-08-28T12:07:47.385Z,32.10
2022-08-28T12:10:20.174Z,32.20
2022-08-28T12:12:46.748Z,32.40
2022-08-28T12:15:38.375Z,32.50
2022-08-28T12:18:12.502Z,32.60
2022-08-28T12:21:01.273Z,32.70
2022-08-28T12:23:39.140Z,32.70
2022-08-28T12:26:28.284Z,32.70
2022-08-28T12:29:04.621Z,32.80
2022-08-28T12:32:11.447Z,32.90
2022-08-28T12:34:43.998Z,33.00
2022-08-28T12:37:39.546Z,33.00
2022-08-28T12:40:53.358Z,33.00
2022-08-28T12:43:41.664Z,33.10
2022-08-28T12:46:35.060Z,33.10
2022-08-28T12:49:04.384Z,33.30
2022-08-28T12:51:37.553Z,33.40
2022-08-28T12:54:07.326Z,33.50
2022-08-28T12:56:37.724Z,33.60
2022-08-28T12:59:27.145Z,33.80
2022-08-28T13:01:54.868Z,33.90
2022-08-28T13:04:30.928Z,34.00
2022-08-28T13:07:06.719Z,34.00
2022-08-28T13:09:34.628Z,33.90
2022-08-28T13:12:01.412Z,33.90
2022-08-28T13:14:43.735Z,34.00
2022-08-28T13:17:11.893Z,34.00
2022-08-28T13:19:39.000Z,34.10
2022-08-28T13:22:09.283Z,34.10
2022-08-28T13:24:37.932Z,34.10
2022-08-28T13:27:16.514Z,34.10
2022-08-28T13:30:20.656Z,34.10
2022-08-28T13:33:23.899Z,34.00
2022-08-28T13:35:52.269Z,33.90
2022-08-28T13:38:22.075Z,33.90
2022-08-28T13:40:59.846Z,33.90
2022-08-28T13:43:29.712Z,33.90
2022-08-28T13:45:57.655Z,34.00
2022-08-28T13:48:26.587Z,34.00
2022-08-28T13:50:59.238Z,33.90
2022-08-28T13:53:25.917Z,33.90
2022-08-28T13:55:53.098Z,33.90
2022-08-28T13:58:19.835Z,34.00
2022-08-28T14:00:49.352Z,34.10
2022-08-28T14:03:35.231Z,34.10
2022-08-28T14:06:03.785Z,34.10
2022-08-28T14:08:31.029Z,34.20
2022-08-28T14:10:57.713Z,34.30
2022-08-28T14:13:27.466Z,34.40
2022-08-28T14:15:55.782Z,34.50
2022-08-28T14:18:23.664Z,34.50
2022-08-28T14:20:50.305Z,34.60
2022-08-28T14:23:16.988Z,34.60
2022-08-28T14:25:45.217Z,34.60
2022-08-28T14:28:14.181Z,34.60
2022-08-28T14:30:49.294Z,34.60
2022-08-28T14:33:18.884Z,34.70
2022-08-28T14:35:49.010Z,34.70
2022-08-28T14:38:16.236Z,34.70
2022-08-28T14:40:44.240Z,34.60
2022-08-28T14:43:12.514Z,34.60
2022-08-28T14:45:45.926Z,34.50
2022-08-28T14:48:14.263Z,34.40
2022-08-28T14:50:42.584Z,34.40
2022-08-28T14:53:11.549Z,34.30
2022-08-28T14:55:41.011Z,34.20
2022-08-28T14:58:07.780Z,34.10
2022-08-28T15:00:39.571Z,34.00
2022-08-28T15:03:06.464Z,33.90
2022-08-28T15:05:33.984Z,33.80
2022-08-28T15:08:00.637Z,33.70
2022-08-28T15:10:27.416Z,33.60
2022-08-28T15:12:54.258Z,33.50
2022-08-28T15:15:22.333Z,33.40
2022-08-28T15:17:49.047Z,33.30
2022-08-28T15:20:15.820Z,33.20
2022-08-28T15:22:42.900Z,33.10
2022-08-28T15:25:09.569Z,32.90
2022-08-28T15:27:36.491Z,32.70
2022-08-28T15:30:04.777Z,32.60
2022-08-28T15:32:32.257Z,32.50
2022-08-28T15:34:58.846Z,32.20
2022-08-28T15:37:25.559Z,32.10
2022-08-28T15:40:10.962Z,31.90
2022-08-28T15:42:37.662Z,31.70
2022-08-28T15:45:04.652Z,31.50
2022-08-28T15:47:31.300Z,31.30
2022-08-28T15:49:58.017Z,31.10
2022-08-28T15:52:25.113Z,30.90
2022-08-28T15:54:52.698Z,30.70
2022-08-28T15:57:19.640Z,30.50
2022-08-28T15:59:50.003Z,30.30
2022-08-28T16:02:22.543Z,30.10
2022-08-28T16:04:49.886Z,30.00
2022-08-28T16:07:17.391Z,29.80
2022-08-28T16:09:44.178Z,29.60
2022-08-28T16:12:10.876Z,29.40
2022-08-28T16:14:38.095Z,29.30
2022-08-28T16:17:11.038Z,29.10
2022-08-28T16:19:44.998Z,28.90
2022-08-28T16:22:15.735Z,28.70
2022-08-28T16:24:42.948Z,28.60
2022-08-28T16:27:13.220Z,28.50
2022-08-28T16:29:42.804Z,28.30
2022-08-28T16:32:09.525Z,28.10
2022-08-28T16:34:39.088Z,28.00
2022-08-28T16:37:08.007Z,27.80
2022-08-28T16:39:35.654Z,27.70
2022-08-28T16:42:02.873Z,27.60
2022-08-28T16:44:29.907Z,27.50
2022-08-28T16:46:56.778Z,27.30
2022-08-28T16:49:24.200Z,27.20
2022-08-28T16:51:50.980Z,27.10
2022-08-28T16:54:18.293Z,26.90
2022-08-28T16:56:45.701Z,26.80
2022-08-28T16:59:16.264Z,26.70
2022-08-28T17:01:42.992Z,26.60
2022-08-28T17:04:10.337Z,26.50
2022-08-28T17:06:37.526Z,26.40
2022-08-28T17:09:04.219Z,26.20
2022-08-28T17:11:31.063Z,26.10
2022-08-28T17:13:58.802Z,26.10
2022-08-28T17:16:31.391Z,26.00
2022-08-28T17:18:59.385Z,25.90
2022-08-28T17:21:44.874Z,25.80
2022-08-28T17:24:15.064Z,25.60
2022-08-28T17:26:43.682Z,25.60
2022-08-28T17:29:11.118Z,25.50
2022-08-28T17:31:38.735Z,25.40
2022-08-28T17:34:07.564Z,25.20
2022-08-28T17:36:36.832Z,25.20
2022-08-28T17:39:06.743Z,25.10
2022-08-28T17:41:33.773Z,25.00
2022-08-28T17:44:01.745Z,24.80
2022-08-28T17:46:30.863Z,24.80
2022-08-28T17:49:00.875Z,24.70
2022-08-28T17:51:41.928Z,24.60
2022-08-28T17:54:10.954Z,24.50
2022-08-28T17:56:37.988Z,24.40
2022-08-28T17:59:05.032Z,24.30
2022-08-28T18:01:31.814Z,24.20
2022-08-28T18:03:58.824Z,24.10
2022-08-28T18:06:25.971Z,24.00
2022-08-28T18:08:52.607Z,23.90
2022-08-28T18:11:19.557Z,23.80
2022-08-28T18:13:48.104Z,23.80
2022-08-28T18:16:14.984Z,23.70
2022-08-28T18:18:42.774Z,23.60
2022-08-28T18:21:10.689Z,23.50
2022-08-28T18:23:37.746Z,23.40
2022-08-28T18:26:04.464Z,23.40
2022-08-28T18:28:32.670Z,23.30
2022-08-28T18:31:00.720Z,23.20
2022-08-28T18:33:27.533Z,23.10
2022-08-28T18:35:54.267Z,23.10
2022-08-28T18:38:25.914Z,23.00
2022-08-28T18:40:53.398Z,22.90
2022-08-28T18:43:21.760Z,22.80
2022-08-28T18:45:48.933Z,22.80
2022-08-28T18:48:15.801Z,22.70
2022-08-28T18:50:46.340Z,22.60
2022-08-28T18:53:19.167Z,22.60
2022-08-28T18:55:46.095Z,22.50
2022-08-28T18:58:15.356Z,22.40
2022-08-28T19:00:42.298Z,22.40
2022-08-28T19:03:09.432Z,22.30
2022-08-28T19:05:37.245Z,22.20
2022-08-28T19:08:04.440Z,22.20
2022-08-28T19:10:34.487Z,22.10
2022-08-28T19:13:01.482Z,22.10
2022-08-28T19:15:29.137Z,22.00
2022-08-28T19:17:56.044Z,21.90
2022-08-28T19:20:23.318Z,21.90
2022-08-28T19:22:50.092Z,21.80
2022-08-28T19:25:27.988Z,21.80
2022-08-28T19:27:59.148Z,21.80
2022-08-28T19:30:28.501Z,21.70
2022-08-28T19:32:55.460Z,21.70
2022-08-28T19:35:24.553Z,21.70
2022-08-28T19:37:52.396Z,21.60
2022-08-28T19:40:20.527Z,21.60
2022-08-28T19:42:47.713Z,21.50
2022-08-28T19:45:15.024Z,21.50
2022-08-28T19:47:41.712Z,21.50
2022-08-28T19:50:15.940Z,21.50
2022-08-28T19:52:44.753Z,21.40
2022-08-28T19:55:22.067Z,21.40
2022-08-28T19:57:49.281Z,21.30
2022-08-28T20:00:18.140Z,21.30
2022-08-28T20:02:45.314Z,21.30
2022-08-28T20:05:12.516Z,21.20
2022-08-28T20:07:39.804Z,21.20
2022-08-28T20:10:08.186Z,21.20
2022-08-28T20:12:34.888Z,21.20
2022-08-28T20:15:03.650Z,21.10
2022-08-28T20:17:30.695Z,21.10
2022-08-28T20:20:02.469Z,21.10
2022-08-28T20:22:31.946Z,21.10
2022-08-28T20:24:59.163Z,21.00
2022-08-28T20:27:25.893Z,21.00
2022-08-28T20:29:52.674Z,20.90
2022-08-28T20:32:19.438Z,20.90
2022-08-28T20:34:46.092Z,20.90
2022-08-28T20:37:13.133Z,20.90
2022-08-28T20:39:41.562Z,20.80
2022-08-28T20:42:09.520Z,20.80
2022-08-28T20:44:36.580Z,20.80
2022-08-28T20:47:03.608Z,20.70
2022-08-28T20:49:30.316Z,20.70
2022-08-28T20:51:57.455Z,20.60
2022-08-28T20:54:30.465Z,20.60
2022-08-28T20:56:59.381Z,20.60
2022-08-28T20:59:29.657Z,20.60
2022-08-28T21:02:07.378Z,20.60
2022-08-28T21:04:34.931Z,20.50
2022-08-28T21:07:01.758Z,20.50
2022-08-28T21:09:53.744Z,20.40
2022-08-28T21:12:16.801Z,20.40
2022-08-28T21:14:45.092Z,20.40
2022-08-28T21:17:20.805Z,20.30
2022-08-28T21:19:55.916Z,20.30
2022-08-28T21:22:23.021Z,20.20
2022-08-28T21:24:50.020Z,20.20
2022-08-28T21:27:18.614Z,20.20
2022-08-28T21:29:45.976Z,20.20
2022-08-28T21:32:13.213Z,20.10
2022-08-28T21:34:39.943Z,20.10
2022-08-28T21:37:06.612Z,20.10
2022-08-28T21:39:36.213Z,20.10
2022-08-28T21:42:03.222Z,20.10
2022-08-28T21:44:29.872Z,20.00
2022-08-28T21:46:56.518Z,20.00
2022-08-28T21:49:23.501Z,20.00
2022-08-28T21:51:50.832Z,19.90
2022-08-28T21:54:19.422Z,19.90
2022-08-28T21:56:46.363Z,19.90
2022-08-28T21:59:15.163Z,19.90
2022-08-28T22:01:42.076Z,19.80
2022-08-28T22:04:08.888Z,19.80
2022-08-28T22:06:35.860Z,19.80
2022-08-28T22:09:04.823Z,19.80
2022-08-28T22:11:32.492Z,19.70
2022-08-28T22:13:59.957Z,19.70
2022-08-28T22:16:27.607Z,19.70
2022-08-28T22:18:54.550Z,19.70
2022-08-28T22:21:43.054Z,19.70
2022-08-28T22:24:10.468Z,19.60
2022-08-28T22:26:37.756Z,19.60
2022-08-28T22:29:05.421Z,19.60
2022-08-28T22:31:32.480Z,19.60
2022-08-28T22:33:59.233Z,19.50
2022-08-28T22:36:29.337Z,19.50
2022-08-28T22:38:56.792Z,19.50
2022-08-28T22:41:24.370Z,19.50
2022-08-28T22:43:53.439Z,19.40
2022-08-28T22:46:20.623Z,19.40
2022-08-28T22:48:47.686Z,19.40
2022-08-28T22:51:18.243Z,19.40
2022-08-28T22:53:45.701Z,19.40
2022-08-28T22:56:12.431Z,19.40
2022-08-28T22:58:39.848Z,19.40
2022-08-28T23:01:11.085Z,19.40
2022-08-28T23:03:39.495Z,19.40
2022-08-28T23:06:06.651Z,19.30
2022-08-28T23:08:34.196Z,19.30
2022-08-28T23:11:01.346Z,19.30
2022-08-28T23:13:28.324Z,19.20
2022-08-28T23:15:54.974Z,19.20
2022-08-28T23:18:21.675Z,19.20
2022-08-28T23:20:50.539Z,19.20
2022-08-28T23:23:18.519Z,19.20
2022-08-28T23:25:45.129Z,19.20
2022-08-28T23:28:11.951Z,19.10
2022-08-28T23:30:39.167Z,19.10
2022-08-28T23:33:08.409Z,19.10
2022-08-28T23:35:36.007Z,19.00
2022-08-28T23:38:03.636Z,19.00
2022-08-28T23:40:30.579Z,19.00
2022-08-28T23:42:58.183Z,18.90
2022-08-28T23:45:27.327Z,18.90
2022-08-28T23:47:54.903Z,18.90
2022-08-28T23:50:23.580Z,18.80
2022-08-28T23:52:50.698Z,18.80
2022-08-28T23:55:19.004Z,18.80
2022-08-28T23:57:45.977Z,18.70
